createdAt,value
2023-01-13T00:00:41.034Z,1289.6
2023-01-13T00:02:24.403Z,1290.8
2023-01-13T00:04:07.771Z,1292.7
2023-01-13T00:05:51.183Z,1294.1
2023-01-13T00:07:34.568Z,1293
2023-01-13T00:09:17.946Z,1291.6
2023-01-13T00:12:44.493Z,1287.6
2023-01-13T00:14:27.821Z,1286.1
2023-01-13T00:16:11.215Z,1287.1
2023-01-13T00:17:54.608Z,1286.1
2023-01-13T00:19:38.000Z,1283.2
2023-01-13T00:21:21.406Z,1284.1
2023-01-13T00:23:04.843Z,1286.1
2023-01-13T00:24:48.203Z,1288.5
2023-01-13T00:26:31.700Z,1288
2023-01-13T00:29:58.074Z,1283.9
2023-01-13T00:31:41.521Z,1280.5
2023-01-13T00:33:24.861Z,1277.7
2023-01-13T00:35:08.256Z,1276.3
2023-01-13T00:36:51.645Z,1275.5
2023-01-13T00:38:35.042Z,1276.7
2023-01-13T00:40:18.448Z,1281.8
2023-01-13T00:42:01.849Z,1289.1
2023-01-13T00:47:11.102Z,1311.4
2023-01-13T00:48:54.491Z,1317
2023-01-13T00:50:37.883Z,1324.1
2023-01-13T00:52:21.287Z,1327.2
2023-01-13T00:54:04.674Z,1332.4
2023-01-13T00:55:48.079Z,1334.1
2023-01-13T00:57:31.461Z,1335.4
2023-01-13T00:59:14.862Z,1336.4
2023-01-13T01:00:58.264Z,1337.8
2023-01-13T01:04:24.734Z,1336.6
2023-01-13T01:06:08.139Z,1335
2023-01-13T01:07:51.533Z,1333.4
2023-01-13T01:09:35.066Z,1334.3
2023-01-13T01:11:18.329Z,1329.4
2023-01-13T01:13:01.787Z,1325.2
2023-01-13T01:14:45.194Z,1324.3
2023-01-13T01:16:28.585Z,1324.3
2023-01-13T01:18:11.902Z,1324.6
2023-01-13T01:21:38.387Z,1325.9
2023-01-13T01:23:21.777Z,1325.7
2023-01-13T01:25:05.159Z,1325.7
2023-01-13T01:26:48.604Z,1321.2
2023-01-13T01:28:31.976Z,1317.5
2023-01-13T01:30:15.367Z,1314.5
2023-01-13T01:31:58.760Z,1317.2
2023-01-13T01:33:42.168Z,1317.1
2023-01-13T01:35:25.545Z,1315.3
2023-01-13T01:38:52.048Z,1311.7
2023-01-13T01:40:35.415Z,1308.7
2023-01-13T01:42:18.814Z,1303.1
2023-01-13T01:44:02.225Z,1303.7
2023-01-13T01:45:45.618Z,1308.1
2023-01-13T01:47:29.023Z,1310.7
2023-01-13T01:49:12.452Z,1313
2023-01-13T01:50:55.790Z,1312.7
2023-01-13T01:56:05.038Z,1308.7
2023-01-13T01:57:48.440Z,1305.5
2023-01-13T01:59:31.860Z,1301.3
2023-01-13T02:01:15.236Z,1294.8
2023-01-13T02:02:58.627Z,1292.1
2023-01-13T02:04:42.033Z,1292.6
2023-01-13T02:06:25.411Z,1290.7
2023-01-13T02:08:08.822Z,1288.2
2023-01-13T02:09:52.216Z,1286.8
2023-01-13T02:13:18.678Z,1284.3
2023-01-13T02:15:02.098Z,1285.1
2023-01-13T02:16:45.468Z,1280.8
2023-01-13T02:18:28.882Z,1283.5
2023-01-13T02:20:12.257Z,1283.5
2023-01-13T02:21:55.698Z,1280.8
2023-01-13T02:23:39.065Z,1284.3
2023-01-13T02:25:22.464Z,1282
2023-01-13T02:30:31.716Z,1274.2
2023-01-13T02:32:15.093Z,1270.7
2023-01-13T02:33:58.505Z,1271
2023-01-13T02:35:41.886Z,1274.2
2023-01-13T02:37:25.279Z,1277.7
2023-01-13T02:39:08.699Z,1279.6
2023-01-13T02:40:52.088Z,1278.6
2023-01-13T02:42:35.537Z,1276
2023-01-13T02:47:44.712Z,1278.2
2023-01-13T02:49:28.118Z,1282
2023-01-13T02:51:11.513Z,1285.7
2023-01-13T02:52:54.900Z,1284.2
2023-01-13T02:54:38.301Z,1280.3
2023-01-13T02:56:21.693Z,1280
2023-01-13T02:58:05.097Z,1276.4
2023-01-13T02:59:48.496Z,1272.1
2023-01-13T03:03:15.207Z,1270.5
2023-01-13T03:04:58.367Z,1268.4
2023-01-13T03:06:41.757Z,1265.5
2023-01-13T03:08:25.152Z,1263.8
2023-01-13T03:10:08.604Z,1263.2
2023-01-13T03:11:51.939Z,1261.4
2023-01-13T03:13:35.332Z,1259.2
2023-01-13T03:15:18.746Z,1260
2023-01-13T03:20:27.980Z,1256.3
2023-01-13T03:22:11.407Z,1256.7
2023-01-13T03:23:54.810Z,1255.7
2023-01-13T03:25:38.171Z,1256
2023-01-13T03:27:21.573Z,1257.8
2023-01-13T03:29:04.962Z,1263.8
2023-01-13T03:30:48.369Z,1263.2
2023-01-13T03:32:31.765Z,1264.7
2023-01-13T03:37:40.992Z,1264.9
2023-01-13T03:39:24.415Z,1263.5
2023-01-13T03:41:07.789Z,1261.5
2023-01-13T03:42:51.186Z,1258.3
2023-01-13T03:44:34.573Z,1257.2
2023-01-13T03:46:17.992Z,1257.8
2023-01-13T03:48:01.370Z,1257.1
2023-01-13T03:49:44.772Z,1257.6
2023-01-13T03:53:11.250Z,1259.1
2023-01-13T03:54:54.660Z,1257.6
2023-01-13T03:56:38.034Z,1257.4
2023-01-13T03:58:21.565Z,1258.1
2023-01-13T04:00:04.870Z,1259.3
2023-01-13T04:01:48.288Z,1261.7
2023-01-13T04:03:31.616Z,1259
2023-01-13T04:05:15.019Z,1256.6
2023-01-13T04:08:41.496Z,1253
2023-01-13T04:10:24.885Z,1252.7
2023-01-13T04:12:08.283Z,1252.7
2023-01-13T04:13:51.678Z,1249.3
2023-01-13T04:15:35.065Z,1251.6
2023-01-13T04:17:18.487Z,1254.6
2023-01-13T04:19:01.868Z,1255.6
2023-01-13T04:20:45.304Z,1256
2023-01-13T04:24:11.741Z,1250.5
2023-01-13T04:25:55.125Z,1248.5
2023-01-13T04:27:38.545Z,1250.2
2023-01-13T04:29:21.926Z,1250.7
2023-01-13T04:31:05.322Z,1248.5
2023-01-13T04:32:48.722Z,1247.6
2023-01-13T04:34:32.107Z,1245.2
2023-01-13T04:36:15.503Z,1242.5
2023-01-13T04:39:41.972Z,1243.4
2023-01-13T04:41:25.380Z,1243.8
2023-01-13T04:43:08.772Z,1244.8
2023-01-13T04:44:52.156Z,1243.2
2023-01-13T04:46:35.558Z,1242.8
2023-01-13T04:48:18.966Z,1243.2
2023-01-13T04:50:02.472Z,1243.6
2023-01-13T04:51:45.750Z,1243.1
2023-01-13T04:56:54.987Z,1244.5
2023-01-13T04:58:38.387Z,1243.2
2023-01-13T05:00:21.784Z,1242.6
2023-01-13T05:02:05.192Z,1239.2
2023-01-13T05:03:48.577Z,1239.6
2023-01-13T05:05:31.979Z,1238.5
2023-01-13T05:07:15.385Z,1238.3
2023-01-13T05:08:58.760Z,1240.2
2023-01-13T05:12:25.239Z,1241.5
2023-01-13T05:14:08.630Z,1241.4
2023-01-13T05:15:52.047Z,1239.6
2023-01-13T05:17:35.420Z,1235.1
2023-01-13T05:19:18.832Z,1234.3
2023-01-13T05:21:02.260Z,1234.7
2023-01-13T05:22:45.632Z,1234.8
2023-01-13T05:24:29.044Z,1232.6
2023-01-13T05:26:12.760Z,1231.7
2023-01-13T05:27:56.121Z,1232.4
2023-01-13T05:29:39.504Z,1232.8
2023-01-13T05:31:22.929Z,1233.4
2023-01-13T05:33:06.303Z,1232.3
2023-01-13T05:34:49.691Z,1232.2
2023-01-13T05:36:33.111Z,1228
2023-01-13T05:38:16.515Z,1223.7
2023-01-13T05:41:42.966Z,1221.3
2023-01-13T05:43:26.357Z,1224.6
2023-01-13T05:45:09.753Z,1226
2023-01-13T05:46:53.162Z,1225.8
2023-01-13T05:48:36.561Z,1228.2
2023-01-13T05:50:19.975Z,1228.4
2023-01-13T05:52:03.404Z,1223.4
2023-01-13T05:53:46.743Z,1221.3
2023-01-13T05:58:55.990Z,1221
2023-01-13T06:00:39.372Z,1223.1
2023-01-13T06:02:22.783Z,1221.4
2023-01-13T06:04:06.172Z,1221.4
2023-01-13T06:05:49.572Z,1219
2023-01-13T06:07:33.001Z,1220
2023-01-13T06:09:16.376Z,1214.5
2023-01-13T06:10:59.764Z,1217.5
2023-01-13T06:16:08.996Z,1217.7
2023-01-13T06:17:52.400Z,1215.4
2023-01-13T06:19:35.794Z,1212.8
2023-01-13T06:21:19.199Z,1211.7
2023-01-13T06:23:02.600Z,1212
2023-01-13T06:24:45.979Z,1214.4
2023-01-13T06:26:29.385Z,1215.3
2023-01-13T06:28:12.763Z,1215.6
2023-01-13T06:31:39.244Z,1214.5
2023-01-13T06:33:22.640Z,1214.7
2023-01-13T06:35:06.049Z,1212.3
2023-01-13T06:36:49.429Z,1211.2
2023-01-13T06:38:32.933Z,1212.3
2023-01-13T06:40:16.235Z,1212
2023-01-13T06:41:59.645Z,1209.1
2023-01-13T06:43:43.009Z,1206.8
2023-01-13T06:48:52.251Z,1210.7
2023-01-13T06:50:35.721Z,1209.8
2023-01-13T06:52:19.050Z,1208.8
2023-01-13T06:54:02.628Z,1206.6
2023-01-13T06:55:45.850Z,1208.4
2023-01-13T06:57:29.244Z,1212.7
2023-01-13T06:59:12.639Z,1209.3
2023-01-13T07:00:56.024Z,1204.6
2023-01-13T07:04:22.504Z,1203.9
2023-01-13T07:06:05.968Z,1199.3
2023-01-13T07:07:49.360Z,1198.2
2023-01-13T07:09:32.697Z,1195.3
2023-01-13T07:11:16.078Z,1190.5
2023-01-13T07:12:59.494Z,1186
2023-01-13T07:14:42.915Z,1183.3
2023-01-13T07:16:26.270Z,1182.6
2023-01-13T07:19:52.749Z,1179.8
2023-01-13T07:21:36.143Z,1176.5
2023-01-13T07:23:19.544Z,1169.3
2023-01-13T07:25:02.947Z,1166.3
2023-01-13T07:26:46.340Z,1162.8
2023-01-13T07:28:29.839Z,1159.7
2023-01-13T07:30:13.175Z,1159.6
2023-01-13T07:31:56.520Z,1162
2023-01-13T07:33:39.921Z,1162
2023-01-13T07:35:23.616Z,1164.6
2023-01-13T07:37:07.095Z,1167.5
2023-01-13T07:38:50.404Z,1172.3
2023-01-13T07:40:33.885Z,1171.5
2023-01-13T07:42:17.205Z,1168
2023-01-13T07:44:00.606Z,1171.1
2023-01-13T07:45:44.031Z,1177.4
2023-01-13T07:47:27.390Z,1180.7
2023-01-13T07:49:10.790Z,1178.1
2023-01-13T07:50:54.512Z,1178.3
2023-01-13T07:52:37.893Z,1181.1
2023-01-13T07:54:21.294Z,1181.8
2023-01-13T07:56:04.681Z,1181.2
2023-01-13T07:57:48.201Z,1181.8
2023-01-13T07:59:31.483Z,1187.3
2023-01-13T08:01:14.961Z,1187
2023-01-13T08:02:58.317Z,1186.4
2023-01-13T08:06:24.839Z,1183.6
2023-01-13T08:08:08.231Z,1180
2023-01-13T08:09:51.582Z,1175.7
2023-01-13T08:11:34.925Z,1177.5
2023-01-13T08:13:18.339Z,1175
2023-01-13T08:15:01.754Z,1169.6
2023-01-13T08:16:45.129Z,1170
2023-01-13T08:18:28.514Z,1169.8
2023-01-13T08:23:37.783Z,1171.2
2023-01-13T08:25:21.214Z,1163
2023-01-13T08:27:04.625Z,1158.8
2023-01-13T08:28:47.972Z,1156.2
2023-01-13T08:30:31.359Z,1155.3
2023-01-13T08:32:14.733Z,1166.5
2023-01-13T08:33:58.164Z,1170
2023-01-13T08:35:41.651Z,1171.1
2023-01-13T08:39:08.019Z,1185.9
2023-01-13T08:40:51.412Z,1189.4
2023-01-13T08:42:34.812Z,1197.8
2023-01-13T08:44:18.182Z,1198.1
2023-01-13T08:46:01.633Z,1200.5
2023-01-13T08:47:45.036Z,1200.5
2023-01-13T08:49:28.393Z,1196.4
2023-01-13T08:51:11.805Z,1194.3
2023-01-13T08:54:38.341Z,1193.1
2023-01-13T08:56:21.673Z,1193.8
2023-01-13T08:58:05.063Z,1189.7
2023-01-13T08:59:48.536Z,1188.5
2023-01-13T09:01:31.904Z,1185.7
2023-01-13T09:03:15.479Z,1183.8
2023-01-13T09:04:58.709Z,1181
2023-01-13T09:06:42.228Z,1183.2
2023-01-13T09:10:08.587Z,1182.7
2023-01-13T09:11:51.968Z,1182
2023-01-13T09:13:35.329Z,1178.4
2023-01-13T09:15:18.736Z,1178.5
2023-01-13T09:17:02.154Z,1179
2023-01-13T09:18:45.510Z,1177.6
2023-01-13T09:20:28.895Z,1178.2
2023-01-13T09:22:12.344Z,1177
2023-01-13T09:25:38.789Z,1166.1
2023-01-13T09:27:22.204Z,1163.1
2023-01-13T09:29:05.543Z,1159.1
2023-01-13T09:30:48.949Z,1154.4
2023-01-13T09:32:32.391Z,1146.8
2023-01-13T09:34:15.735Z,1142.2
2023-01-13T09:35:59.143Z,1138.8
2023-01-13T09:37:42.589Z,1135.2
2023-01-13T09:41:09.015Z,1126.3
2023-01-13T09:42:52.391Z,1122
2023-01-13T09:44:35.818Z,1120.7
2023-01-13T09:46:19.194Z,1117.1
2023-01-13T09:48:02.684Z,1110.8
2023-01-13T09:49:45.986Z,1101.6
2023-01-13T09:51:29.540Z,1096.3
2023-01-13T09:53:12.779Z,1091
2023-01-13T09:56:39.260Z,1084.1
2023-01-13T09:58:22.641Z,1078.3
2023-01-13T10:00:06.044Z,1073.5
2023-01-13T10:01:49.428Z,1068.8
2023-01-13T10:03:32.887Z,1063.7
2023-01-13T10:05:16.239Z,1060.6
2023-01-13T10:06:59.623Z,1058.3
2023-01-13T10:08:43.043Z,1054.8
2023-01-13T10:12:09.538Z,1038.6
2023-01-13T10:13:52.900Z,1033
2023-01-13T10:15:36.346Z,1029.5
2023-01-13T10:17:19.687Z,1023.4
2023-01-13T10:19:03.167Z,1019.7
2023-01-13T10:20:46.533Z,1017.6
2023-01-13T10:22:29.870Z,1015.7
2023-01-13T10:24:13.279Z,1013.3
2023-01-13T10:27:39.762Z,1022.5
2023-01-13T10:29:23.265Z,1025.6
2023-01-13T10:31:06.550Z,1024
2023-01-13T10:32:49.930Z,1029.8
2023-01-13T10:34:33.342Z,1031.4
2023-01-13T10:36:16.751Z,1029.5
2023-01-13T10:38:00.121Z,1030.7
2023-01-13T10:39:43.516Z,1031.7
2023-01-13T10:43:10.033Z,1036.1
2023-01-13T10:44:53.377Z,1040.3
2023-01-13T10:46:36.853Z,1040.6
2023-01-13T10:48:20.233Z,1039.6
2023-01-13T10:50:03.650Z,1038.4
2023-01-13T10:51:47.118Z,1035.5
2023-01-13T10:53:30.366Z,1030.4
2023-01-13T10:55:13.753Z,1023.4
2023-01-13T10:58:40.261Z,1021
2023-01-13T11:00:23.637Z,1020.6
2023-01-13T11:02:07.023Z,1012.6
2023-01-13T11:03:50.472Z,1009
2023-01-13T11:05:33.826Z,1009.4
2023-01-13T11:07:17.207Z,1005.2
2023-01-13T11:09:00.732Z,1001.3
2023-01-13T11:10:44.051Z,1000.3
2023-01-13T11:15:53.262Z,1000.9
2023-01-13T11:17:36.687Z,1002
2023-01-13T11:19:20.056Z,1006
2023-01-13T11:21:03.448Z,1007.8
2023-01-13T11:22:46.841Z,1009.3
2023-01-13T11:24:30.231Z,1009.7
2023-01-13T11:26:13.660Z,1007.1
2023-01-13T11:27:57.029Z,1008.7
2023-01-13T11:29:40.424Z,1013
2023-01-13T11:31:24.117Z,1015.4
2023-01-13T11:33:07.572Z,1018.3
2023-01-13T11:34:50.913Z,1017.7
2023-01-13T11:36:34.330Z,1016.4
2023-01-13T11:38:17.729Z,1015.8
2023-01-13T11:40:01.113Z,1014.5
2023-01-13T11:41:44.513Z,1011.5
2023-01-13T11:43:27.894Z,1009.6
2023-01-13T11:45:11.318Z,1010
2023-01-13T11:46:54.998Z,1010.6
2023-01-13T11:48:38.384Z,1010.4
2023-01-13T11:50:21.785Z,1008.8
2023-01-13T11:52:05.182Z,1001.6
2023-01-13T11:53:48.587Z,1011.7
2023-01-13T11:55:31.980Z,1022.8
2023-01-13T11:57:15.425Z,1033.7
2023-01-13T11:58:58.760Z,1039.2
2023-01-13T12:00:42.165Z,1051.8
2023-01-13T12:02:25.882Z,1059.7
2023-01-13T12:04:09.255Z,1051.8
2023-01-13T12:05:52.721Z,1043.5
2023-01-13T12:07:36.071Z,1042.8
2023-01-13T12:09:19.455Z,1040
2023-01-13T12:11:02.984Z,1037.6
2023-01-13T12:12:46.253Z,1036.5
2023-01-13T12:14:29.662Z,1037.2
2023-01-13T12:19:38.881Z,1026.5
2023-01-13T12:21:22.294Z,1025.7
2023-01-13T12:23:05.688Z,1024
2023-01-13T12:24:49.073Z,1021.4
2023-01-13T12:26:32.468Z,1023
2023-01-13T12:28:15.862Z,1024
2023-01-13T12:29:59.261Z,1024.6
2023-01-13T12:31:42.665Z,1025.2
2023-01-13T12:35:09.127Z,1033.5
2023-01-13T12:36:52.523Z,1046.5
2023-01-13T12:38:35.939Z,1066.7
2023-01-13T12:40:19.312Z,1079.4
2023-01-13T12:42:02.771Z,1074.5
2023-01-13T12:43:46.104Z,1066.5
2023-01-13T12:45:29.671Z,1059.5
2023-01-13T12:47:12.902Z,1053.4
2023-01-13T12:50:39.383Z,1051.3
2023-01-13T12:52:22.783Z,1047.2
2023-01-13T12:54:06.175Z,1045.4
2023-01-13T12:55:49.567Z,1047
2023-01-13T12:57:32.988Z,1047.4
2023-01-13T12:59:16.347Z,1044.3
2023-01-13T13:00:59.758Z,1039.8
2023-01-13T13:02:43.141Z,1038.5
2023-01-13T13:06:09.684Z,1045.6
2023-01-13T13:07:53.061Z,1076.5
2023-01-13T13:09:36.471Z,1100.5
2023-01-13T13:11:19.800Z,1080.2
2023-01-13T13:13:03.223Z,1062.2
2023-01-13T13:14:46.604Z,1054.5
2023-01-13T13:16:29.986Z,1045.8
2023-01-13T13:18:13.384Z,1040.8
2023-01-13T13:19:56.788Z,1040.6
2023-01-13T13:21:40.495Z,1038.5
2023-01-13T13:23:23.875Z,1034.2
2023-01-13T13:25:07.283Z,1029.6
2023-01-13T13:26:50.688Z,1029.4
2023-01-13T13:28:34.099Z,1038.1
2023-01-13T13:30:17.474Z,1062.2
2023-01-13T13:32:00.900Z,1061
2023-01-13T13:33:44.272Z,1063
2023-01-13T13:37:10.755Z,1091
2023-01-13T13:38:54.136Z,1102.2
2023-01-13T13:40:37.595Z,1087.1
2023-01-13T13:42:20.936Z,1073.1
2023-01-13T13:44:04.343Z,1066
2023-01-13T13:45:47.712Z,1061.2
2023-01-13T13:47:31.116Z,1059.3
2023-01-13T13:49:14.558Z,1057.7
2023-01-13T13:50:58.226Z,1060.8
2023-01-13T13:52:41.672Z,1056.5
2023-01-13T13:54:25.006Z,1053.5
2023-01-13T13:56:08.514Z,1053.6
2023-01-13T13:57:51.827Z,1052
2023-01-13T13:59:35.245Z,1055.3
2023-01-13T14:01:18.598Z,1058.1
2023-01-13T14:03:01.988Z,1055.5
2023-01-13T14:06:28.464Z,1052.6
2023-01-13T14:08:11.829Z,1050.5
2023-01-13T14:09:55.245Z,1049.1
2023-01-13T14:11:38.631Z,1049.4
2023-01-13T14:13:22.015Z,1048.6
2023-01-13T14:15:05.406Z,1046.7
2023-01-13T14:16:48.783Z,1041.4
2023-01-13T14:18:32.199Z,1039.8
2023-01-13T14:23:41.436Z,1035.9
2023-01-13T14:25:24.826Z,1038
2023-01-13T14:27:08.219Z,1031.2
2023-01-13T14:28:51.694Z,1024
2023-01-13T14:30:35.018Z,1019.4
2023-01-13T14:32:18.392Z,1012.8
2023-01-13T14:34:01.817Z,1008.3
2023-01-13T14:35:45.189Z,1006.2
2023-01-13T14:40:54.418Z,998.3
2023-01-13T14:42:37.891Z,998.6
2023-01-13T14:44:21.217Z,998.1
2023-01-13T14:46:04.616Z,991.4
2023-01-13T14:47:48.030Z,985.5
2023-01-13T14:49:31.399Z,981.7
2023-01-13T14:51:14.825Z,979.3
2023-01-13T14:52:58.187Z,980.1
2023-01-13T14:54:41.594Z,981.7
2023-01-13T14:58:08.066Z,982.2
2023-01-13T15:03:18.267Z,987.5
2023-01-13T15:05:01.697Z,988.1
2023-01-13T15:06:45.029Z,989.2
2023-01-13T15:08:28.434Z,991.8
2023-01-13T15:10:11.832Z,989.7
2023-01-13T15:13:38.320Z,993.3
2023-01-13T15:15:21.683Z,988
2023-01-13T15:17:05.170Z,988.7
2023-01-13T15:18:48.557Z,989.5
2023-01-13T15:20:31.887Z,986.8
2023-01-13T15:22:15.290Z,986.2
2023-01-13T15:23:58.678Z,986.5
2023-01-13T15:25:42.081Z,987.2
2023-01-13T15:29:08.538Z,990.5
2023-01-13T15:30:51.931Z,993.8
2023-01-13T15:32:35.350Z,991.6
2023-01-13T15:34:18.754Z,993.7
2023-01-13T15:36:02.143Z,994.7
2023-01-13T15:37:45.527Z,994.4
2023-01-13T15:39:29.062Z,996.3
2023-01-13T15:41:12.320Z,999.8
2023-01-13T15:44:38.858Z,1004.8
2023-01-13T15:46:22.176Z,1003.6
2023-01-13T15:48:05.574Z,1004.2
2023-01-13T15:49:49.002Z,1008
2023-01-13T15:51:32.447Z,1007.1
2023-01-13T15:53:15.766Z,1005.6
2023-01-13T15:54:59.166Z,1004.3
2023-01-13T15:56:42.583Z,1010
2023-01-13T16:00:09.034Z,1010.2
2023-01-13T16:01:52.447Z,1011.5
2023-01-13T16:03:35.841Z,1018.1
2023-01-13T16:05:19.231Z,1014.2
2023-01-13T16:07:02.619Z,1011.1
2023-01-13T16:08:46.031Z,1011.4
2023-01-13T16:10:29.414Z,1010.2
2023-01-13T16:12:12.814Z,1008.6
2023-01-13T16:15:39.302Z,1010.5
2023-01-13T16:17:22.690Z,1011.3
2023-01-13T16:19:06.086Z,1011.1
2023-01-13T16:20:49.492Z,1011.4
2023-01-13T16:22:32.898Z,1025.8
2023-01-13T16:24:16.297Z,1021.5
2023-01-13T16:25:59.678Z,1068
2023-01-13T16:27:43.081Z,1107.6
2023-01-13T16:31:09.615Z,1088
2023-01-13T16:32:53.025Z,1092.4
2023-01-13T16:34:36.420Z,1100.8
2023-01-13T16:36:19.761Z,1109.4
2023-01-13T16:38:03.198Z,1114.5
2023-01-13T16:39:46.547Z,1120.8
2023-01-13T16:41:29.952Z,1129.7
2023-01-13T16:43:13.359Z,1135.2
2023-01-13T16:44:57.110Z,1145.6
2023-01-13T16:46:40.507Z,1146
2023-01-13T16:48:23.847Z,1136.1
2023-01-13T16:50:07.262Z,1134.6
2023-01-13T16:51:50.781Z,1135.5
2023-01-13T16:53:34.122Z,1136.4
2023-01-13T16:55:17.442Z,1128.3
2023-01-13T16:57:00.882Z,1121.7
2023-01-13T17:00:27.310Z,1113.7
2023-01-13T17:02:10.776Z,1112.1
2023-01-13T17:03:54.116Z,1108.8
2023-01-13T17:05:37.517Z,1104
2023-01-13T17:07:20.932Z,1101.4
2023-01-13T17:09:04.313Z,1099.8
2023-01-13T17:10:47.792Z,1098.1
2023-01-13T17:15:56.950Z,1092.7
2023-01-13T17:17:40.378Z,1088.1
2023-01-13T17:19:23.752Z,1083.8
2023-01-13T17:21:07.148Z,1086.7
2023-01-13T17:22:50.524Z,1084.2
2023-01-13T17:24:33.958Z,1079
2023-01-13T17:26:17.330Z,1080
2023-01-13T17:28:00.743Z,1081.3
2023-01-13T17:31:27.223Z,1087.3
2023-01-13T17:33:10.602Z,1088.7
2023-01-13T17:34:53.992Z,1092.6
2023-01-13T17:36:37.393Z,1095
2023-01-13T17:38:20.797Z,1093.7
2023-01-13T17:40:04.202Z,1097.6
2023-01-13T17:41:47.608Z,1103.2
2023-01-13T17:43:30.981Z,1105.6
2023-01-13T17:46:57.439Z,1116.8
2023-01-13T17:48:40.837Z,1130.2
2023-01-13T17:50:24.224Z,1138.8
2023-01-13T17:52:07.643Z,1144.2
2023-01-13T17:53:51.054Z,1155.2
2023-01-13T17:55:34.425Z,1168.5
2023-01-13T17:57:17.830Z,1177
2023-01-13T17:59:01.219Z,1182.1
2023-01-13T18:02:27.768Z,1178
2023-01-13T18:04:11.094Z,1178.8
2023-01-13T18:05:54.495Z,1173.7
2023-01-13T18:07:37.871Z,1169.3
2023-01-13T18:09:21.288Z,1166.8
2023-01-13T18:11:04.656Z,1162.2
2023-01-13T18:12:48.057Z,1168.4
2023-01-13T18:14:31.460Z,1174.4
2023-01-13T18:19:40.705Z,1165.5
2023-01-13T18:21:24.107Z,1163.4
2023-01-13T18:23:07.500Z,1158.5
2023-01-13T18:24:50.933Z,1154.5
2023-01-13T18:26:34.299Z,1152
2023-01-13T18:28:17.681Z,1149.6
2023-01-13T18:30:01.072Z,1146.5
2023-01-13T18:31:44.474Z,1144.3
2023-01-13T18:33:28.172Z,1145.6
2023-01-13T18:35:11.562Z,1152.2
2023-01-13T18:36:54.977Z,1161.6
2023-01-13T18:38:38.434Z,1169.8
2023-01-13T18:40:21.756Z,1169.6
2023-01-13T18:42:05.249Z,1171.2
2023-01-13T18:43:48.561Z,1166.2
2023-01-13T18:45:31.994Z,1161.4
2023-01-13T18:48:58.418Z,1152
2023-01-13T18:50:41.835Z,1149.4
2023-01-13T18:52:25.202Z,1147.2
2023-01-13T18:54:08.605Z,1146.6
2023-01-13T18:55:52.107Z,1148.1
2023-01-13T18:57:35.405Z,1147.2
2023-01-13T18:59:18.849Z,1146.1
2023-01-13T19:01:02.239Z,1138.7
2023-01-13T19:04:28.668Z,1133.6
2023-01-13T19:06:12.048Z,1130.1
2023-01-13T19:07:55.443Z,1126.4
2023-01-13T19:09:38.848Z,1125.2
2023-01-13T19:11:22.247Z,1121.7
2023-01-13T19:13:05.666Z,1119.3
2023-01-13T19:14:49.052Z,1119.8
2023-01-13T19:16:32.491Z,1119.6
2023-01-13T19:18:16.130Z,1116.3
2023-01-13T19:19:59.532Z,1115.7
2023-01-13T19:21:42.926Z,1114.6
2023-01-13T19:23:26.359Z,1110.6
2023-01-13T19:25:09.750Z,1109
2023-01-13T19:26:53.167Z,1111.4
2023-01-13T19:28:36.525Z,1106.6
2023-01-13T19:30:19.912Z,1105.1
2023-01-13T19:33:46.391Z,1103.9
2023-01-13T19:35:29.797Z,1103.1
2023-01-13T19:37:13.163Z,1101.4
2023-01-13T19:38:56.575Z,1095.8
2023-01-13T19:40:39.999Z,1094.2
2023-01-13T19:42:23.374Z,1092.7
2023-01-13T19:44:06.754Z,1092.2
2023-01-13T19:49:16.005Z,1090.5
2023-01-13T19:50:59.409Z,1089.1
2023-01-13T19:52:42.789Z,1090.3
2023-01-13T19:54:26.299Z,1094.3
2023-01-13T19:56:09.587Z,1103.3
2023-01-13T19:57:52.986Z,1109
2023-01-13T19:59:36.403Z,1112.7
2023-01-13T20:01:19.889Z,1110.8
2023-01-13T20:03:03.488Z,1108
2023-01-13T20:04:46.885Z,1105
2023-01-13T20:06:30.279Z,1102.8
2023-01-13T20:08:13.691Z,1098
2023-01-13T20:09:57.081Z,1094.6
2023-01-13T20:11:40.458Z,1091.3
2023-01-13T20:13:23.877Z,1087
2023-01-13T20:15:07.262Z,1082.4
2023-01-13T20:20:16.575Z,1077.4
2023-01-13T20:21:59.964Z,1074.5
2023-01-13T20:23:43.292Z,1076.2
2023-01-13T20:25:26.695Z,1077.3
2023-01-13T20:27:10.095Z,1079.1
2023-01-13T20:28:53.588Z,1083.1
2023-01-13T20:30:36.899Z,1092.1
2023-01-13T20:32:20.377Z,1103.8
2023-01-13T20:35:46.747Z,1107.7
2023-01-13T20:37:30.131Z,1100.7
2023-01-13T20:39:13.531Z,1097.8
2023-01-13T20:40:56.933Z,1097.1
2023-01-13T20:42:40.348Z,1091.8
2023-01-13T20:44:23.725Z,1086.8
2023-01-13T20:46:07.146Z,1084.6
2023-01-13T20:47:50.517Z,1091.3
2023-01-13T20:49:34.242Z,1095.4
2023-01-13T20:51:17.626Z,1109.2
2023-01-13T20:53:01.023Z,1127.3
2023-01-13T20:54:44.420Z,1122.8
2023-01-13T20:56:27.799Z,1118.7
2023-01-13T20:58:11.283Z,1116.2
2023-01-13T20:59:54.608Z,1118.6
2023-01-13T21:01:37.987Z,1118
2023-01-13T21:05:04.499Z,1119.8
2023-01-13T21:06:47.871Z,1123.2
2023-01-13T21:08:31.274Z,1123.3
2023-01-13T21:10:14.677Z,1117.3
2023-01-13T21:11:58.060Z,1109
2023-01-13T21:13:41.446Z,1105.4
2023-01-13T21:15:24.900Z,1101.8
2023-01-13T21:17:08.241Z,1098.8
2023-01-13T21:22:17.481Z,1087.3
2023-01-13T21:24:00.886Z,1086.8
2023-01-13T21:25:44.299Z,1083.3
2023-01-13T21:27:27.679Z,1081.5
2023-01-13T21:29:11.123Z,1082.8
2023-01-13T21:30:54.473Z,1084.5
2023-01-13T21:32:37.860Z,1084
2023-01-13T21:34:21.256Z,1086.6
2023-01-13T21:36:04.650Z,1088.5
2023-01-13T21:37:48.388Z,1088.1
2023-01-13T21:39:31.756Z,1088.4
2023-01-13T21:41:15.156Z,1087.4
2023-01-13T21:42:58.565Z,1084.2
2023-01-13T21:44:41.941Z,1086.8
2023-01-13T21:46:25.342Z,1090.7
2023-01-13T21:48:08.754Z,1092.1
2023-01-13T21:49:52.129Z,1091.1
2023-01-13T21:53:18.612Z,1093.9
2023-01-13T21:55:02.023Z,1100.2
2023-01-13T21:56:45.398Z,1108.6
2023-01-13T21:58:28.781Z,1111.1
2023-01-13T22:00:12.193Z,1118
2023-01-13T22:01:55.599Z,1120.6
2023-01-13T22:03:38.975Z,1116.3
2023-01-13T22:05:22.384Z,1115
2023-01-13T22:10:31.613Z,1121.4
2023-01-13T22:12:15.013Z,1118.3
2023-01-13T22:13:58.410Z,1119.4
2023-01-13T22:15:41.821Z,1115.5
2023-01-13T22:17:25.213Z,1112.4
2023-01-13T22:19:08.716Z,1111.7
2023-01-13T22:20:51.992Z,1115.1
2023-01-13T22:22:35.394Z,1117.3
2023-01-13T22:27:44.640Z,1124.2
2023-01-13T22:29:28.043Z,1128
2023-01-13T22:31:11.423Z,1139.2
2023-01-13T22:32:54.825Z,1137.3
2023-01-13T22:34:38.216Z,1137.8
2023-01-13T22:36:21.695Z,1136.8
2023-01-13T22:38:05.080Z,1133
2023-01-13T22:39:48.409Z,1135
2023-01-13T22:43:14.881Z,1146.3
2023-01-13T22:44:58.283Z,1150.8
2023-01-13T22:46:41.673Z,1150.6
2023-01-13T22:48:25.089Z,1146.4
2023-01-13T22:50:08.452Z,1142.5
2023-01-13T22:51:51.861Z,1139.6
2023-01-13T22:53:35.256Z,1133.7
2023-01-13T22:55:18.731Z,1131.8
2023-01-13T22:57:02.064Z,1126.7
2023-01-13T22:58:45.760Z,1126.7
2023-01-13T23:00:29.161Z,1129.6
2023-01-13T23:02:12.551Z,1132.1
2023-01-13T23:03:55.951Z,1131.8
2023-01-13T23:05:39.355Z,1131.1
2023-01-13T23:07:22.732Z,1133
2023-01-13T23:09:06.131Z,1134.2
2023-01-13T23:10:49.539Z,1136.7
2023-01-13T23:12:32.995Z,1141.7
2023-01-13T23:15:59.465Z,1144.2
2023-01-13T23:17:42.784Z,1148.2
2023-01-13T23:19:26.190Z,1150.4
2023-01-13T23:22:52.990Z,1148.1
2023-01-13T23:24:36.369Z,1145.8
2023-01-13T23:26:19.820Z,1141.3
2023-01-13T23:28:03.203Z,1134
2023-01-13T23:31:29.657Z,1138.2
2023-01-13T23:33:13.063Z,1134.8
2023-01-13T23:34:56.434Z,1137.2
2023-01-13T23:36:39.885Z,1140.5
2023-01-13T23:38:23.236Z,1142
2023-01-13T23:40:06.626Z,1143
2023-01-13T23:41:50.030Z,1135.2
2023-01-13T23:43:33.408Z,1129.8
2023-01-13T23:48:42.662Z,1136.9
2023-01-13T23:50:26.060Z,1144.3
2023-01-13T23:52:09.459Z,1144.7
2023-01-13T23:53:52.849Z,1143.5
2023-01-13T23:55:36.317Z,1139
2023-01-13T23:57:19.755Z,1140
2023-01-13T23:59:03.053Z,1148.1
